createdAt,value
2019-04-11T00:01:53.507Z,100099.62
2019-04-11T00:04:20.076Z,100106.06
2019-04-11T00:06:47.778Z,100105.88
2019-04-11T00:09:16.677Z,100102.28
2019-04-11T00:11:44.206Z,100104.07
2019-04-11T00:14:11.883Z,100104.59
2019-04-11T00:16:39.446Z,100106.97
2019-04-11T00:19:07.316Z,100108.83
2019-04-11T00:21:34.919Z,100101.30
2019-04-11T00:24:02.551Z,100101.87
2019-04-11T00:26:30.573Z,100104.89
2019-04-11T00:28:58.341Z,100105.46
2019-04-11T00:31:25.178Z,100097.67
2019-04-11T00:33:51.920Z,100100.56
2019-04-11T00:36:18.274Z,100099.27
2019-04-11T00:38:45.679Z,100101.70
2019-04-11T00:41:13.329Z,100095.92
2019-04-11T00:43:42.200Z,100092.67
2019-04-11T00:46:08.122Z,100094.91
2019-04-11T00:48:35.528Z,100097.12
2019-04-11T00:51:03.447Z,100098.94
2019-04-11T00:53:29.938Z,100101.20
2019-04-11T00:55:56.257Z,100099.30
2019-04-11T00:58:22.602Z,100105.39
2019-04-11T01:00:48.927Z,100096.41
2019-04-11T01:03:15.247Z,100107.70
2019-04-11T01:05:41.672Z,100113.34
2019-04-11T01:08:08.317Z,100114.86
2019-04-11T01:10:34.675Z,100113.62
2019-04-11T01:13:01.032Z,100117.36
2019-04-11T01:15:27.503Z,100116.06
2019-04-11T01:17:53.915Z,100118.59
2019-04-11T01:20:21.582Z,100119.05
2019-04-11T01:22:48.715Z,100122.66
2019-04-11T01:25:16.638Z,100123.16
2019-04-11T01:27:43.051Z,100117.69
2019-04-11T01:30:13.747Z,100118.47
2019-04-11T01:32:40.420Z,100120.34
2019-04-11T01:35:06.933Z,100123.02
2019-04-11T01:37:35.547Z,100122.53
2019-04-11T01:40:02.420Z,100118.37
2019-04-11T01:42:29.910Z,100114.36
2019-04-11T01:44:56.913Z,100119.95
2019-04-11T01:47:25.315Z,100123.20
2019-04-11T01:49:52.482Z,100120.80
2019-04-11T01:52:18.933Z,100124.02
2019-04-11T01:54:45.996Z,100128.45
2019-04-11T01:57:12.441Z,100128.22
2019-04-11T01:59:39.587Z,100129.00
2019-04-11T02:02:09.459Z,100133.06
2019-04-11T02:04:54.313Z,100130.27
2019-04-11T02:07:22.599Z,100133.02
2019-04-11T02:09:50.434Z,100138.77
2019-04-11T02:12:16.938Z,100141.36
2019-04-11T02:14:43.899Z,100138.77
2019-04-11T02:17:10.511Z,100133.64
2019-04-11T02:19:37.095Z,100133.70
2019-04-11T02:22:22.295Z,100131.28
2019-04-11T02:24:50.699Z,100140.30
2019-04-11T02:27:21.668Z,100139.84
2019-04-11T02:29:49.112Z,100142.19
2019-04-11T02:32:15.785Z,100144.12
2019-04-11T02:34:43.906Z,100146.13
2019-04-11T02:37:10.945Z,100146.62
2019-04-11T02:39:38.603Z,100147.06
2019-04-11T02:42:06.487Z,100149.80
2019-04-11T02:44:52.911Z,100154.27
2019-04-11T02:47:08.494Z,100149.84
2019-04-11T02:49:31.170Z,100152.95
2019-04-11T02:51:58.557Z,100152.20
2019-04-11T02:54:26.447Z,100149.05
2019-04-11T02:56:54.826Z,100155.13
2019-04-11T02:59:21.652Z,100153.64
2019-04-11T03:01:48.625Z,100154.64
2019-04-11T03:04:16.712Z,100155.92
2019-04-11T03:06:44.036Z,100156.72
2019-04-11T03:09:13.304Z,100158.61
2019-04-11T03:11:40.871Z,100168.73
2019-04-11T03:14:07.833Z,100167.94
2019-04-11T03:16:49.350Z,100173.28
2019-04-11T03:19:19.268Z,100172.72
2019-04-11T03:21:36.621Z,100175.32
2019-04-11T03:24:02.896Z,100177.27
2019-04-11T03:26:31.202Z,100181.89
2019-04-11T03:28:59.700Z,100178.09
2019-04-11T03:32:05.241Z,100176.77
2019-04-11T03:34:39.822Z,100181.08
2019-04-11T03:39:12.010Z,100182.21
2019-04-11T03:41:37.291Z,100187.97
2019-04-11T03:43:59.154Z,100185.06
2019-04-11T03:46:36.543Z,100190.54
2019-04-11T03:48:59.962Z,100193.58
2019-04-11T03:51:18.304Z,100194.81
2019-04-11T03:53:47.108Z,100192.24
2019-04-11T03:56:16.246Z,100202.86
2019-04-11T03:58:43.828Z,100203.83
2019-04-11T04:01:11.738Z,100200.25
2019-04-11T04:03:39.266Z,100198.91
2019-04-11T04:06:06.943Z,100197.34
2019-04-11T04:08:36.179Z,100205.23
2019-04-11T04:11:08.611Z,100210.39
2019-04-11T04:13:38.967Z,100209.13
2019-04-11T04:16:18.779Z,100214.52
2019-04-11T04:18:41.331Z,100215.06
2019-04-11T04:21:22.698Z,100217.20
2019-04-11T04:23:51.878Z,100214.17
2019-04-11T04:26:19.187Z,100220.09
2019-04-11T04:28:47.555Z,100222.50
2019-04-11T04:31:16.258Z,100223.69
2019-04-11T04:33:43.143Z,100225.27
2019-04-11T04:36:10.914Z,100233.84
2019-04-11T04:38:41.476Z,100232.84
2019-04-11T04:41:22.429Z,100233.25
2019-04-11T04:43:38.858Z,100233.44
2019-04-11T04:46:25.188Z,100243.61
2019-04-11T04:48:34.541Z,100238.11
2019-04-11T04:51:07.316Z,100244.86
2019-04-11T04:53:30.969Z,100249.85
2019-04-11T04:55:58.293Z,100250.88
2019-04-11T04:58:26.290Z,100252.77
2019-04-11T05:00:54.259Z,100250.63
2019-04-11T05:03:22.196Z,100256.27
2019-04-11T05:05:48.845Z,100262.09
2019-04-11T05:08:16.613Z,100256.30
2019-04-11T05:10:43.016Z,100268.64
2019-04-11T05:13:09.927Z,100260.11
2019-04-11T05:15:36.658Z,100265.60
2019-04-11T05:18:04.120Z,100270.55
2019-04-11T05:20:32.186Z,100274.59
2019-04-11T05:23:00.025Z,100273.00
2019-04-11T05:25:26.627Z,100270.55
2019-04-11T05:27:54.134Z,100273.78
2019-04-11T05:30:20.514Z,100270.81
2019-04-11T05:32:47.279Z,100276.19
2019-04-11T05:35:14.395Z,100272.16
2019-04-11T05:37:41.183Z,100282.04
2019-04-11T05:40:09.309Z,100283.98
2019-04-11T05:42:35.860Z,100276.00
2019-04-11T05:45:03.971Z,100285.56
2019-04-11T05:47:31.623Z,100286.11
2019-04-11T05:50:01.087Z,100290.73
2019-04-11T05:52:31.067Z,100295.96
2019-04-11T05:54:58.527Z,100297.63
2019-04-11T05:57:33.619Z,100289.16
2019-04-11T05:59:55.108Z,100292.47
2019-04-11T06:02:33.711Z,100295.67
2019-04-11T06:05:02.858Z,100297.45
2019-04-11T06:07:31.329Z,100293.63
2019-04-11T06:10:00.539Z,100293.38
2019-04-11T06:12:27.573Z,100298.20
2019-04-11T06:15:02.165Z,100300.73
2019-04-11T06:17:28.764Z,100303.70
2019-04-11T06:20:14.416Z,100297.50
2019-04-11T06:22:42.806Z,100305.52
2019-04-11T06:25:28.653Z,100306.33
2019-04-11T06:27:58.445Z,100311.33
2019-04-11T06:30:32.654Z,100311.09
2019-04-11T06:33:12.254Z,100307.87
2019-04-11T06:35:39.879Z,100311.63
2019-04-11T06:38:14.363Z,100308.54
2019-04-11T06:40:44.009Z,100308.28
2019-04-11T06:43:28.980Z,100308.08
2019-04-11T06:45:57.224Z,100313.70
2019-04-11T06:48:33.771Z,100302.59
2019-04-11T06:51:02.090Z,100304.73
2019-04-11T06:53:30.318Z,100313.13
2019-04-11T06:56:00.136Z,100311.94
2019-04-11T06:58:29.685Z,100314.05
2019-04-11T07:00:58.239Z,100306.04
2019-04-11T07:03:29.237Z,100302.81
2019-04-11T07:05:57.263Z,100308.56
2019-04-11T07:08:26.480Z,100310.56
2019-04-11T07:10:55.299Z,100313.48
2019-04-11T07:13:26.615Z,100316.78
2019-04-11T07:15:52.937Z,100313.28
2019-04-11T07:18:37.886Z,100315.98
2019-04-11T07:21:06.421Z,100318.90
2019-04-11T07:23:51.675Z,100322.25
2019-04-11T07:26:18.891Z,100323.48
2019-04-11T07:28:45.890Z,100326.56
2019-04-11T07:31:19.310Z,100327.77
2019-04-11T07:33:51.791Z,100319.19
2019-04-11T07:36:38.260Z,100326.23
2019-04-11T07:39:09.838Z,100327.49
2019-04-11T07:41:36.737Z,100328.14
2019-04-11T07:44:06.396Z,100333.77
2019-04-11T07:46:40.743Z,100334.02
2019-04-11T07:49:08.146Z,100338.79
2019-04-11T07:51:34.957Z,100341.31
2019-04-11T07:54:02.635Z,100344.23
2019-04-11T07:56:37.552Z,100343.53
2019-04-11T07:59:09.302Z,100347.60
2019-04-11T08:01:44.753Z,100349.81
2019-04-11T08:04:13.458Z,100353.45
2019-04-11T08:07:00.327Z,100346.63
2019-04-11T08:09:41.588Z,100351.95
2019-04-11T08:12:10.001Z,100359.17
2019-04-11T08:14:40.308Z,100353.45
2019-04-11T08:17:09.365Z,100351.91
2019-04-11T08:19:43.833Z,100358.22
2019-04-11T08:22:19.032Z,100346.40
2019-04-11T08:24:46.926Z,100353.91
2019-04-11T08:27:18.247Z,100355.41
2019-04-11T08:29:47.614Z,100356.13
2019-04-11T08:32:36.028Z,100356.86
2019-04-11T08:35:21.928Z,100359.05
2019-04-11T08:38:07.895Z,100354.30
2019-04-11T08:40:55.475Z,100352.03
2019-04-11T08:43:28.899Z,100369.80
2019-04-11T08:46:04.855Z,100362.45
2019-04-11T08:48:33.201Z,100352.86
2019-04-11T08:51:12.671Z,100369.74
2019-04-11T08:53:44.805Z,100365.59
2019-04-11T08:56:14.587Z,100371.48
2019-04-11T08:59:11.380Z,100361.83
2019-04-11T09:01:38.153Z,100365.92
2019-04-11T09:04:23.987Z,100375.58
2019-04-11T09:06:50.854Z,100371.84
2019-04-11T09:09:23.130Z,100368.20
2019-04-11T09:11:58.259Z,100367.59
2019-04-11T09:14:44.452Z,100368.22
2019-04-11T09:17:19.918Z,100362.88
2019-04-11T09:19:52.078Z,100364.66
2019-04-11T09:22:27.602Z,100367.93
2019-04-11T09:25:05.219Z,100369.19
2019-04-11T09:27:51.039Z,100357.91
2019-04-11T09:30:26.500Z,100352.41
2019-04-11T09:32:53.185Z,100363.86
2019-04-11T09:35:24.831Z,100366.78
2019-04-11T09:37:51.795Z,100363.97
2019-04-11T09:40:39.605Z,100369.48
2019-04-11T09:43:11.826Z,100374.42
2019-04-11T09:45:57.686Z,100379.50
2019-04-11T09:48:32.105Z,100378.09
2019-04-11T09:51:00.905Z,100378.81
2019-04-11T09:53:28.265Z,100373.98
2019-04-11T09:56:13.406Z,100378.28
2019-04-11T09:58:39.966Z,100371.81
2019-04-11T10:01:12.486Z,100374.79
2019-04-11T10:03:39.304Z,100373.82
2019-04-11T10:06:07.150Z,100382.45
2019-04-11T10:08:35.580Z,100386.02
2019-04-11T10:11:07.904Z,100377.64
2019-04-11T10:13:40.707Z,100380.52
2019-04-11T10:16:26.303Z,100372.03
2019-04-11T10:19:11.725Z,100376.11
2019-04-11T10:21:43.705Z,100376.05
2019-04-11T10:24:30.431Z,100377.06
2019-04-11T10:27:12.176Z,100379.20
2019-04-11T10:29:57.375Z,100360.09
2019-04-11T10:32:28.345Z,100371.12
2019-04-11T10:34:57.669Z,100361.02
2019-04-11T10:37:23.997Z,100374.39
2019-04-11T10:40:10.910Z,100380.47
2019-04-11T10:42:37.238Z,100373.67
2019-04-11T10:45:16.263Z,100377.97
2019-04-11T10:47:42.672Z,100375.33
2019-04-11T10:50:15.489Z,100367.72
2019-04-11T10:52:53.076Z,100371.66
2019-04-11T10:55:38.010Z,100382.55
2019-04-11T10:58:09.048Z,100377.98
2019-04-11T11:00:41.524Z,100372.33
2019-04-11T11:03:13.696Z,100370.53
2019-04-11T11:05:42.920Z,100363.14
2019-04-11T11:08:11.369Z,100371.83
2019-04-11T11:10:39.766Z,100366.25
2019-04-11T11:13:21.639Z,100372.58
2019-04-11T11:15:49.946Z,100377.90
2019-04-11T11:18:53.829Z,100380.06
2019-04-11T11:20:55.050Z,100376.69
2019-04-11T11:23:37.214Z,100386.85
2019-04-11T11:26:07.036Z,100381.14
2019-04-11T11:28:36.827Z,100385.80
2019-04-11T11:31:22.393Z,100398.25
2019-04-11T11:33:50.962Z,100398.55
2019-04-11T11:36:17.563Z,100392.50
2019-04-11T11:38:54.545Z,100392.81
2019-04-11T11:41:32.275Z,100389.97
2019-04-11T11:43:59.286Z,100398.11
2019-04-11T11:46:42.932Z,100397.36
2019-04-11T11:49:10.226Z,100404.88
2019-04-11T11:51:49.768Z,100405.63
2019-04-11T11:54:21.946Z,100402.17
2019-04-11T11:56:48.970Z,100411.47
2019-04-11T11:59:18.254Z,100415.23
2019-04-11T12:01:50.945Z,100411.19
2019-04-11T12:07:08.815Z,100416.25
2019-04-11T12:09:53.556Z,100410.29
2019-04-11T12:12:21.901Z,100419.62
2019-04-11T12:15:05.113Z,100420.73
2019-04-11T12:17:36.979Z,100416.59
2019-04-11T12:20:11.101Z,100419.33
2019-04-11T12:22:35.247Z,100426.38
2019-04-11T12:25:07.139Z,100417.50
2019-04-11T12:27:39.996Z,100412.91
2019-04-11T12:30:15.640Z,100421.23
2019-04-11T12:33:03.470Z,100414.77
2019-04-11T12:35:32.600Z,100418.88
2019-04-11T12:38:05.244Z,100419.15
2019-04-11T12:40:40.856Z,100417.08
2019-04-11T12:43:09.262Z,100423.73
2019-04-11T12:45:35.701Z,100417.84
2019-04-11T12:48:12.185Z,100417.08
2019-04-11T12:50:53.360Z,100411.16
2019-04-11T12:53:19.999Z,100416.34
2019-04-11T12:55:48.246Z,100415.06
2019-04-11T12:58:19.148Z,100410.22
2019-04-11T13:01:03.979Z,100404.18
2019-04-11T13:03:49.447Z,100420.52
2019-04-11T13:06:21.534Z,100416.80
2019-04-11T13:08:57.275Z,100413.86
2019-04-11T13:11:25.508Z,100420.34
2019-04-11T13:13:57.480Z,100420.18
2019-04-11T13:16:25.700Z,100411.47
2019-04-11T13:19:10.827Z,100417.42
2019-04-11T13:21:39.434Z,100417.41
2019-04-11T13:24:19.892Z,100422.47
2019-04-11T13:26:48.205Z,100417.57
2019-04-11T13:29:20.641Z,100417.58
2019-04-11T13:31:53.014Z,100422.19
2019-04-11T13:34:21.606Z,100416.91
2019-04-11T13:37:06.891Z,100420.57
2019-04-11T13:39:34.135Z,100426.80
2019-04-11T13:42:11.727Z,100430.10
2019-04-11T13:44:39.493Z,100422.97
2019-04-11T13:47:05.809Z,100425.30
2019-04-11T13:49:32.138Z,100423.22
2019-04-11T13:51:58.799Z,100433.89
2019-04-11T13:54:35.987Z,100424.56
2019-04-11T13:57:13.183Z,100435.39
2019-04-11T13:59:57.852Z,100426.16
2019-04-11T14:02:28.968Z,100429.83
2019-04-11T14:05:00.214Z,100436.02
2019-04-11T14:07:27.096Z,100426.39
2019-04-11T14:09:59.136Z,100430.87
2019-04-11T14:12:33.454Z,100425.53
2019-04-11T14:15:01.411Z,100421.55
2019-04-11T14:17:46.226Z,100421.27
2019-04-11T14:20:15.813Z,100413.71
2019-04-11T14:23:00.751Z,100414.25
2019-04-11T14:25:45.932Z,100410.06
2019-04-11T14:28:14.506Z,100406.73
2019-04-11T14:30:43.892Z,100416.77
2019-04-11T14:33:10.224Z,100408.50
2019-04-11T14:35:39.520Z,100409.03
2019-04-11T14:38:17.077Z,100418.34
2019-04-11T14:40:45.411Z,100408.58
2019-04-11T14:43:20.269Z,100414.52
2019-04-11T14:45:51.020Z,100404.54
2019-04-11T14:48:18.694Z,100408.61
2019-04-11T14:50:47.733Z,100410.68
2019-04-11T14:53:32.498Z,100412.05
2019-04-11T14:56:00.819Z,100409.89
2019-04-11T14:58:29.374Z,100414.20
2019-04-11T15:00:55.711Z,100416.59
2019-04-11T15:03:39.121Z,100414.34
2019-04-11T15:06:07.362Z,100411.77
2019-04-11T15:08:41.520Z,100410.23
2019-04-11T15:11:09.824Z,100412.47
2019-04-11T15:13:40.180Z,100412.00
2019-04-11T15:16:10.924Z,100416.20
2019-04-11T15:18:38.862Z,100415.48
2019-04-11T15:21:07.333Z,100413.21
2019-04-11T15:23:37.680Z,100416.14
2019-04-11T15:26:18.189Z,100415.06
2019-04-11T15:28:46.979Z,100421.75
2019-04-11T15:31:39.209Z,100420.67
2019-04-11T15:34:17.500Z,100415.95
2019-04-11T15:37:02.294Z,100425.86
2019-04-11T15:39:30.554Z,100423.88
2019-04-11T15:42:02.077Z,100422.48
2019-04-11T15:44:44.546Z,100423.58
2019-04-11T15:47:12.867Z,100427.22
2019-04-11T15:49:46.625Z,100424.81
2019-04-11T15:52:15.046Z,100424.16
2019-04-11T15:54:43.898Z,100421.16
2019-04-11T15:57:12.716Z,100421.92
2019-04-11T15:59:44.006Z,100423.87
2019-04-11T16:02:19.487Z,100429.02
2019-04-11T16:04:46.062Z,100431.17
2019-04-11T16:07:12.394Z,100435.85
2019-04-11T16:09:42.271Z,100435.48
2019-04-11T16:12:25.229Z,100435.11
2019-04-11T16:15:11.719Z,100431.73
2019-04-11T16:17:45.927Z,100428.45
2019-04-11T16:20:13.200Z,100429.38
2019-04-11T16:22:42.916Z,100430.13
2019-04-11T16:25:10.759Z,100426.21
2019-04-11T16:27:55.625Z,100434.04
2019-04-11T16:30:23.707Z,100441.66
2019-04-11T16:33:05.192Z,100436.04
2019-04-11T16:35:37.559Z,100430.73
2019-04-11T16:38:22.961Z,100434.60
2019-04-11T16:40:54.131Z,100443.44
2019-04-11T16:43:24.217Z,100447.58
2019-04-11T16:46:08.965Z,100444.05
2019-04-11T16:48:35.489Z,100455.91
2019-04-11T16:51:02.244Z,100444.48
2019-04-11T16:53:29.037Z,100442.47
2019-04-11T16:55:55.806Z,100446.70
2019-04-11T16:58:22.212Z,100451.88
2019-04-11T17:00:52.214Z,100452.48
2019-04-11T17:03:17.385Z,100452.91
2019-04-11T17:05:45.863Z,100450.82
2019-04-11T17:08:14.105Z,100450.98
2019-04-11T17:10:58.984Z,100449.14
2019-04-11T17:13:27.950Z,100454.70
2019-04-11T17:15:54.725Z,100461.31
2019-04-11T17:18:21.341Z,100459.01
2019-04-11T17:20:47.905Z,100458.13
2019-04-11T17:23:14.405Z,100453.64
2019-04-11T17:25:41.309Z,100460.74
2019-04-11T17:28:09.075Z,100459.62
2019-04-11T17:30:36.090Z,100463.77
2019-04-11T17:33:02.558Z,100465.80
2019-04-11T17:35:31.547Z,100470.30
2019-04-11T17:37:57.304Z,100469.70
2019-04-11T17:40:23.682Z,100467.26
2019-04-11T17:42:54.080Z,100478.96
2019-04-11T17:45:20.682Z,100480.47
2019-04-11T17:47:49.059Z,100487.06
2019-04-11T17:50:16.545Z,100483.20
2019-04-11T17:52:43.082Z,100490.06
2019-04-11T17:55:09.470Z,100483.08
2019-04-11T17:57:36.062Z,100487.06
2019-04-11T18:00:07.094Z,100493.63
2019-04-11T18:02:35.628Z,100503.49
2019-04-11T18:05:03.679Z,100494.44
2019-04-11T18:07:47.563Z,100502.95
2019-04-11T18:10:16.462Z,100504.40
2019-04-11T18:12:43.450Z,100508.05
2019-04-11T18:15:10.228Z,100523.53
2019-04-11T18:17:36.761Z,100522.02
2019-04-11T18:20:07.600Z,100529.11
2019-04-11T18:22:35.048Z,100521.11
2019-04-11T18:25:01.644Z,100526.58
2019-04-11T18:27:28.316Z,100533.02
2019-04-11T18:29:54.894Z,100535.87
2019-04-11T18:32:21.983Z,100540.28
2019-04-11T18:34:48.358Z,100541.33
2019-04-11T18:37:15.062Z,100544.46
2019-04-11T18:39:41.867Z,100542.88
2019-04-11T18:42:12.427Z,100542.89
2019-04-11T18:44:39.687Z,100548.74
2019-04-11T18:47:06.116Z,100543.10
2019-04-11T18:49:32.554Z,100554.28
2019-04-11T18:51:58.881Z,100552.06
2019-04-11T18:54:25.213Z,100547.78
2019-04-11T18:56:51.579Z,100553.36
2019-04-11T18:59:18.902Z,100549.80
2019-04-11T19:01:45.260Z,100551.59
2019-04-11T19:04:12.606Z,100555.67
2019-04-11T19:06:42.511Z,100554.59
2019-04-11T19:09:13.827Z,100564.93
2019-04-11T19:11:41.074Z,100564.62
2019-04-11T19:14:09.684Z,100566.27
2019-04-11T19:16:36.191Z,100557.14
2019-04-11T19:19:03.165Z,100555.75
2019-04-11T19:21:29.792Z,100561.97
2019-04-11T19:23:56.134Z,100562.73
2019-04-11T19:26:23.025Z,100554.84
2019-04-11T19:28:49.849Z,100566.53
2019-04-11T19:31:16.277Z,100564.88
2019-04-11T19:33:42.642Z,100557.28
2019-04-11T19:36:10.079Z,100567.64
2019-04-11T19:38:37.994Z,100564.02
2019-04-11T19:41:04.664Z,100560.74
2019-04-11T19:43:31.354Z,100568.99
2019-04-11T19:45:58.776Z,100565.63
2019-04-11T19:48:25.795Z,100567.92
2019-04-11T19:50:52.376Z,100567.02
2019-04-11T19:53:19.071Z,100564.64
2019-04-11T19:55:45.644Z,100566.23
2019-04-11T19:58:12.108Z,100568.09
2019-04-11T20:00:39.144Z,100555.20
2019-04-11T20:03:08.336Z,100559.58
2019-04-11T20:05:34.417Z,100565.72
2019-04-11T20:08:00.792Z,100560.25
2019-04-11T20:10:30.600Z,100562.72
2019-04-11T20:12:55.914Z,100570.05
2019-04-11T20:15:22.313Z,100569.62
2019-04-11T20:17:52.031Z,100564.33
2019-04-11T20:20:17.078Z,100563.55
2019-04-11T20:22:43.511Z,100560.48
2019-04-11T20:25:10.011Z,100556.55
2019-04-11T20:27:36.818Z,100563.37
2019-04-11T20:30:06.579Z,100557.22
2019-04-11T20:32:33.861Z,100563.84
2019-04-11T20:35:00.346Z,100561.23
2019-04-11T20:37:38.499Z,100560.58
2019-04-11T20:39:54.935Z,100562.23
2019-04-11T20:42:24.048Z,100567.43
2019-04-11T20:44:49.943Z,100557.08
2019-04-11T20:47:16.927Z,100561.12
2019-04-11T20:49:47.816Z,100564.47
2019-04-11T20:52:14.177Z,100564.39
2019-04-11T20:54:45.222Z,100560.13
2019-04-11T20:57:12.080Z,100570.00
2019-04-11T20:59:42.340Z,100565.24
2019-04-11T21:02:07.404Z,100566.23
2019-04-11T21:04:34.110Z,100565.09
2019-04-11T21:07:02.035Z,100564.83
2019-04-11T21:09:33.039Z,100564.67
2019-04-11T21:11:57.234Z,100564.21
2019-04-11T21:14:23.898Z,100567.69
2019-04-11T21:16:50.582Z,100565.79
2019-04-11T21:19:16.918Z,100567.84
2019-04-11T21:21:43.250Z,100565.53
2019-04-11T21:24:09.895Z,100565.98
2019-04-11T21:26:36.310Z,100564.69
2019-04-11T21:29:03.071Z,100563.08
2019-04-11T21:31:31.241Z,100562.87
2019-04-11T21:33:57.947Z,100564.58
2019-04-11T21:36:26.848Z,100566.08
2019-04-11T21:38:52.857Z,100573.07
2019-04-11T21:41:19.222Z,100573.98
2019-04-11T21:43:45.847Z,100572.09
2019-04-11T21:46:12.177Z,100574.53
2019-04-11T21:48:38.861Z,100575.44
2019-04-11T21:51:05.179Z,100570.61
2019-04-11T21:53:36.679Z,100571.06
2019-04-11T21:56:00.018Z,100566.70
2019-04-11T21:58:26.718Z,100570.06
2019-04-11T22:00:58.287Z,100569.72
2019-04-11T22:03:26.607Z,100565.09
2019-04-11T22:05:53.403Z,100570.42
2019-04-11T22:08:20.151Z,100573.20
2019-04-11T22:10:46.515Z,100576.97
2019-04-11T22:13:12.860Z,100569.91
2019-04-11T22:15:42.010Z,100576.13
2019-04-11T22:18:07.990Z,100572.28
2019-04-11T22:20:35.055Z,100578.12
2019-04-11T22:23:01.430Z,100573.83
2019-04-11T22:25:28.037Z,100569.70
2019-04-11T22:27:54.551Z,100561.87
2019-04-11T22:30:25.108Z,100565.01
2019-04-11T22:32:51.233Z,100573.67
2019-04-11T22:35:17.586Z,100564.14
2019-04-11T22:37:43.921Z,100561.34
2019-04-11T22:40:10.735Z,100564.09
2019-04-11T22:42:37.393Z,100562.33
2019-04-11T22:45:05.864Z,100563.38
2019-04-11T22:47:33.304Z,100564.67
2019-04-11T22:49:59.951Z,100564.77
2019-04-11T22:52:26.582Z,100564.03
2019-04-11T22:54:53.256Z,100567.38
2019-04-11T22:57:19.910Z,100569.31
2019-04-11T22:59:46.295Z,100568.00
2019-04-11T23:02:20.785Z,100565.14
2019-04-11T23:04:47.620Z,100571.30
2019-04-11T23:07:15.066Z,100568.22
2019-04-11T23:09:42.686Z,100572.97
2019-04-11T23:12:09.028Z,100563.08
2019-04-11T23:14:35.383Z,100567.23
2019-04-11T23:17:01.704Z,100564.14
2019-04-11T23:19:28.038Z,100560.08
2019-04-11T23:21:54.377Z,100557.73
2019-04-11T23:24:20.712Z,100562.78
2019-04-11T23:26:47.028Z,100561.64
2019-04-11T23:29:15.679Z,100561.34
2019-04-11T23:31:42.034Z,100570.07
2019-04-11T23:34:08.396Z,100567.56
2019-04-11T23:36:34.739Z,100567.02
2019-04-11T23:39:01.432Z,100562.28
2019-04-11T23:41:29.694Z,100564.04
2019-04-11T23:43:55.996Z,100565.05
2019-04-11T23:46:22.376Z,100560.52
2019-04-11T23:48:49.096Z,100561.92
2019-04-11T23:51:15.741Z,100560.40
2019-04-11T23:53:42.390Z,100563.52
2019-04-11T23:56:08.734Z,100557.69
2019-04-11T23:58:35.070Z,100564.24
